createdAt,value
2022-09-28T00:00:27.178Z,15.42
2022-09-28T00:01:29.336Z,14.26
2022-09-28T00:02:31.313Z,15.21
2022-09-28T00:03:33.263Z,14.89
2022-09-28T00:04:35.129Z,14.97
2022-09-28T00:05:36.945Z,14.97
2022-09-28T00:06:38.774Z,15.31
2022-09-28T00:07:40.608Z,14.88
2022-09-28T00:08:42.435Z,14.17
2022-09-28T00:09:44.284Z,15.29
2022-09-28T00:10:46.219Z,14.66
2022-09-28T00:11:48.175Z,14.94
2022-09-28T00:12:49.987Z,15.22
2022-09-28T00:13:51.823Z,15.68
2022-09-28T00:14:53.678Z,15.04
2022-09-28T00:15:55.544Z,15.63
2022-09-28T00:16:57.319Z,15.21
2022-09-28T00:17:59.141Z,15.81
2022-09-28T00:19:01.000Z,14.74
2022-09-28T00:20:03.816Z,15.68
2022-09-28T00:21:05.606Z,14.98
2022-09-28T00:22:07.394Z,15.41
2022-09-28T00:23:09.189Z,15.63
2022-09-28T00:24:10.991Z,15.17
2022-09-28T00:25:12.834Z,15.65
2022-09-28T00:26:15.337Z,15.70
2022-09-28T00:27:17.176Z,16.16
2022-09-28T00:28:18.978Z,16.01
2022-09-28T00:29:20.775Z,15.71
2022-09-28T00:30:22.728Z,15.94
2022-09-28T00:31:24.569Z,15.43
2022-09-28T00:32:26.323Z,15.33
2022-09-28T00:33:28.127Z,15.10
2022-09-28T00:34:29.920Z,15.10
2022-09-28T00:35:31.768Z,15.76
2022-09-28T00:36:33.568Z,15.31
2022-09-28T00:37:35.360Z,16.21
2022-09-28T00:38:37.147Z,16.06
2022-09-28T00:39:38.949Z,16.34
2022-09-28T00:40:40.866Z,15.85
2022-09-28T00:41:43.397Z,16.50
2022-09-28T00:42:45.257Z,16.14
2022-09-28T00:43:47.048Z,15.65
2022-09-28T00:44:48.842Z,16.07
2022-09-28T00:45:50.722Z,15.81
2022-09-28T00:46:52.487Z,16.89
2022-09-28T00:47:54.178Z,16.71
2022-09-28T00:48:55.976Z,15.87
2022-09-28T00:49:57.776Z,15.87
2022-09-28T00:50:59.713Z,16.15
2022-09-28T00:52:01.649Z,16.44
2022-09-28T00:53:03.567Z,15.87
2022-09-28T00:54:05.395Z,15.37
2022-09-28T00:55:07.199Z,15.95
2022-09-28T00:56:09.336Z,16.31
2022-09-28T00:57:11.140Z,17.03
2022-09-28T00:58:12.953Z,15.79
2022-09-28T00:59:14.774Z,16.04
2022-09-28T01:00:16.646Z,15.83
2022-09-28T01:01:18.591Z,16.14
2022-09-28T01:02:22.066Z,16.01
2022-09-28T01:03:23.929Z,16.51
2022-09-28T01:04:29.775Z,16.67
2022-09-28T01:05:29.352Z,16.16
2022-09-28T01:06:31.171Z,16.41
2022-09-28T01:07:32.956Z,16.43
2022-09-28T01:08:34.659Z,16.62
2022-09-28T01:09:36.445Z,16.05
2022-09-28T01:10:38.251Z,15.51
2022-09-28T01:11:40.191Z,16.51
2022-09-28T01:12:41.989Z,15.87
2022-09-28T01:13:43.831Z,17.00
2022-09-28T01:14:45.629Z,16.47
2022-09-28T01:15:47.431Z,16.11
2022-09-28T01:16:49.352Z,16.84
2022-09-28T01:17:51.237Z,16.57
2022-09-28T01:18:53.039Z,17.07
2022-09-28T01:19:54.739Z,17.14
2022-09-28T01:20:56.554Z,16.46
2022-09-28T01:21:58.565Z,16.53
2022-09-28T01:23:00.356Z,16.35
2022-09-28T01:24:02.158Z,17.75
2022-09-28T01:25:04.167Z,16.44
2022-09-28T01:26:06.155Z,16.62
2022-09-28T01:27:08.007Z,17.57
2022-09-28T01:28:09.817Z,17.42
2022-09-28T01:29:11.624Z,16.54
2022-09-28T01:30:14.537Z,17.79
2022-09-28T01:31:16.390Z,17.62
2022-09-28T01:32:18.294Z,17.50
2022-09-28T01:33:20.095Z,17.94
2022-09-28T01:34:21.888Z,17.49
2022-09-28T01:35:23.682Z,17.93
2022-09-28T01:36:25.495Z,18.10
2022-09-28T01:37:27.311Z,17.91
2022-09-28T01:38:29.104Z,17.92
2022-09-28T01:39:30.905Z,18.09
2022-09-28T01:40:32.856Z,17.67
2022-09-28T01:41:34.642Z,18.64
2022-09-28T01:42:36.465Z,18.23
2022-09-28T01:43:38.252Z,17.99
2022-09-28T01:44:40.192Z,17.81
2022-09-28T01:45:42.033Z,17.67
2022-09-28T01:46:43.893Z,18.36
2022-09-28T01:47:45.718Z,18.10
2022-09-28T01:48:47.524Z,18.01
2022-09-28T01:49:49.322Z,19.16
2022-09-28T01:50:51.123Z,19.12
2022-09-28T01:51:52.822Z,18.68
2022-09-28T01:52:54.649Z,18.41
2022-09-28T01:53:56.447Z,18.73
2022-09-28T01:54:58.247Z,18.79
2022-09-28T01:56:00.049Z,19.17
2022-09-28T01:57:01.848Z,18.95
2022-09-28T01:58:03.666Z,19.09
2022-09-28T01:59:05.459Z,19.30
2022-09-28T02:00:07.505Z,19.44
2022-09-28T02:01:09.341Z,18.77
2022-09-28T02:02:11.138Z,19.51
2022-09-28T02:03:13.005Z,19.30
2022-09-28T02:04:14.803Z,19.57
2022-09-28T02:05:16.604Z,19.76
2022-09-28T02:06:18.599Z,19.75
2022-09-28T02:07:20.393Z,19.05
2022-09-28T02:08:22.297Z,19.31
2022-09-28T02:09:24.106Z,19.85
2022-09-28T02:10:25.948Z,19.10
2022-09-28T02:11:27.765Z,19.97
2022-09-28T02:12:29.567Z,19.47
2022-09-28T02:13:31.417Z,18.76
2022-09-28T02:14:33.211Z,18.86
2022-09-28T02:15:35.118Z,19.44
2022-09-28T02:16:36.978Z,19.59
2022-09-28T02:17:38.817Z,18.84
2022-09-28T02:18:40.650Z,23.30
2022-09-28T02:19:42.437Z,26.15
2022-09-28T02:20:44.152Z,26.49
2022-09-28T02:21:45.959Z,22.91
2022-09-28T02:22:47.761Z,22.50
2022-09-28T02:23:49.601Z,22.37
2022-09-28T02:24:51.387Z,22.44
2022-09-28T02:25:53.191Z,24.22
2022-09-28T02:26:54.976Z,24.39
2022-09-28T02:27:56.787Z,23.93
2022-09-28T02:28:58.623Z,23.75
2022-09-28T02:30:00.412Z,22.56
2022-09-28T02:31:02.526Z,21.40
2022-09-28T02:32:04.372Z,21.05
2022-09-28T02:33:06.326Z,20.56
2022-09-28T02:34:08.177Z,21.89
2022-09-28T02:35:10.003Z,21.08
2022-09-28T02:36:12.647Z,21.31
2022-09-28T02:37:14.480Z,21.74
2022-09-28T02:38:16.295Z,22.24
2022-09-28T02:39:18.295Z,19.96
2022-09-28T02:40:20.261Z,21.04
2022-09-28T02:41:22.039Z,20.16
2022-09-28T02:42:23.852Z,19.43
2022-09-28T02:43:25.690Z,20.61
2022-09-28T02:44:27.575Z,19.17
2022-09-28T02:45:29.433Z,20.00
2022-09-28T02:46:31.312Z,19.51
2022-09-28T02:47:33.134Z,21.33
2022-09-28T02:48:43.523Z,21.22
2022-09-28T02:49:38.627Z,22.94
2022-09-28T02:50:40.433Z,22.03
2022-09-28T02:51:42.256Z,21.07
2022-09-28T02:52:44.167Z,21.29
2022-09-28T02:53:45.979Z,20.43
2022-09-28T02:54:47.829Z,21.60
2022-09-28T02:55:49.656Z,20.12
2022-09-28T02:56:51.471Z,21.20
2022-09-28T02:57:53.313Z,20.35
2022-09-28T02:58:55.166Z,20.59
2022-09-28T02:59:56.999Z,21.11
2022-09-28T03:00:58.902Z,21.21
2022-09-28T03:02:00.924Z,21.56
2022-09-28T03:03:02.807Z,22.47
2022-09-28T03:04:04.621Z,23.95
2022-09-28T03:05:08.283Z,21.78
2022-09-28T03:06:10.204Z,24.02
2022-09-28T03:07:12.036Z,23.81
2022-09-28T03:08:13.884Z,23.93
2022-09-28T03:09:15.695Z,23.23
2022-09-28T03:10:17.646Z,23.71
2022-09-28T03:11:19.469Z,24.81
2022-09-28T03:12:21.428Z,24.49
2022-09-28T03:13:23.227Z,22.97
2022-09-28T03:14:25.043Z,22.49
2022-09-28T03:15:26.904Z,21.71
2022-09-28T03:16:28.749Z,22.37
2022-09-28T03:17:30.577Z,21.16
2022-09-28T03:18:32.393Z,23.36
2022-09-28T03:19:34.206Z,22.91
2022-09-28T03:20:36.063Z,22.59
2022-09-28T03:21:37.896Z,23.69
2022-09-28T03:22:39.724Z,23.89
2022-09-28T03:23:41.544Z,24.02
2022-09-28T03:24:43.370Z,23.53
2022-09-28T03:25:45.227Z,24.83
2022-09-28T03:26:47.038Z,23.61
2022-09-28T03:27:48.853Z,23.48
2022-09-28T03:28:50.664Z,23.51
2022-09-28T03:29:52.517Z,23.63
2022-09-28T03:30:54.383Z,23.84
2022-09-28T03:31:56.233Z,23.28
2022-09-28T03:32:58.119Z,23.40
2022-09-28T03:34:00.043Z,23.61
2022-09-28T03:35:01.867Z,22.79
2022-09-28T03:36:03.732Z,23.43
2022-09-28T03:37:05.525Z,22.99
2022-09-28T03:38:07.360Z,23.74
2022-09-28T03:39:09.180Z,23.44
2022-09-28T03:40:10.997Z,22.86
2022-09-28T03:41:13.159Z,23.13
2022-09-28T03:42:14.991Z,23.33
2022-09-28T03:43:16.805Z,23.68
2022-09-28T03:44:18.620Z,23.50
2022-09-28T03:45:20.431Z,22.87
2022-09-28T03:46:22.392Z,22.83
2022-09-28T03:47:24.213Z,23.76
2022-09-28T03:48:31.210Z,23.57
2022-09-28T03:49:29.757Z,24.05
2022-09-28T03:50:31.573Z,24.46
2022-09-28T03:51:33.431Z,23.83
2022-09-28T03:52:35.239Z,24.00
2022-09-28T03:53:37.072Z,23.06
2022-09-28T03:54:38.868Z,23.69
2022-09-28T03:55:40.699Z,23.06
2022-09-28T03:56:42.554Z,23.09
2022-09-28T03:57:44.367Z,23.19
2022-09-28T03:58:46.186Z,23.45
2022-09-28T03:59:48.039Z,23.21
2022-09-28T04:00:49.914Z,23.17
2022-09-28T04:01:51.978Z,24.68
2022-09-28T04:02:53.809Z,24.78
2022-09-28T04:03:55.770Z,24.47
2022-09-28T04:04:57.596Z,23.69
2022-09-28T04:05:59.422Z,23.57
2022-09-28T04:07:01.371Z,23.34
2022-09-28T04:08:03.195Z,22.90
2022-09-28T04:09:05.023Z,23.15
2022-09-28T04:10:06.935Z,22.82
2022-09-28T04:11:08.753Z,22.51
2022-09-28T04:12:10.720Z,22.61
2022-09-28T04:13:12.548Z,23.29
2022-09-28T04:14:14.368Z,22.49
2022-09-28T04:15:16.176Z,22.76
2022-09-28T04:16:18.728Z,23.22
2022-09-28T04:17:20.570Z,22.97
2022-09-28T04:18:22.396Z,22.79
2022-09-28T04:19:24.241Z,21.69
2022-09-28T04:20:26.049Z,21.98
2022-09-28T04:21:27.869Z,23.64
2022-09-28T04:22:29.729Z,22.85
2022-09-28T04:23:31.557Z,23.17
2022-09-28T04:24:33.394Z,22.64
2022-09-28T04:25:35.208Z,22.78
2022-09-28T04:26:37.027Z,22.57
2022-09-28T04:27:38.892Z,22.97
2022-09-28T04:28:40.726Z,22.94
2022-09-28T04:29:42.541Z,23.34
2022-09-28T04:30:44.352Z,22.67
2022-09-28T04:31:46.223Z,22.81
2022-09-28T04:32:48.047Z,23.41
2022-09-28T04:33:49.854Z,23.38
2022-09-28T04:34:51.713Z,22.01
2022-09-28T04:35:53.528Z,22.84
2022-09-28T04:36:55.362Z,22.80
2022-09-28T04:37:57.210Z,22.71
2022-09-28T04:38:59.022Z,24.76
2022-09-28T04:40:00.840Z,24.49
2022-09-28T04:41:02.744Z,25.54
2022-09-28T04:42:04.621Z,25.03
2022-09-28T04:43:06.458Z,25.86
2022-09-28T04:44:08.245Z,26.39
2022-09-28T04:45:10.043Z,25.72
2022-09-28T04:46:12.321Z,25.89
2022-09-28T04:47:14.061Z,25.15
2022-09-28T04:48:16.017Z,24.09
2022-09-28T04:49:17.895Z,24.48
2022-09-28T04:50:19.839Z,24.37
2022-09-28T04:51:21.644Z,24.24
2022-09-28T04:52:23.477Z,24.46
2022-09-28T04:53:25.321Z,23.83
2022-09-28T04:54:27.125Z,24.96
2022-09-28T04:55:28.947Z,24.01
2022-09-28T04:56:30.734Z,24.35
2022-09-28T04:57:32.537Z,24.13
2022-09-28T04:58:34.376Z,23.81
2022-09-28T04:59:36.177Z,25.04
2022-09-28T05:00:37.972Z,25.43
2022-09-28T05:01:39.946Z,24.59
2022-09-28T05:02:41.815Z,24.97
2022-09-28T05:03:43.638Z,24.01
2022-09-28T05:04:45.437Z,23.70
2022-09-28T05:05:47.256Z,24.08
2022-09-28T05:06:49.075Z,23.31
2022-09-28T05:07:50.867Z,24.91
2022-09-28T05:08:52.687Z,24.03
2022-09-28T05:09:54.649Z,23.95
2022-09-28T05:10:56.396Z,23.74
2022-09-28T05:11:58.199Z,23.76
2022-09-28T05:13:00.008Z,24.35
2022-09-28T05:14:01.840Z,25.01
2022-09-28T05:15:03.632Z,24.78
2022-09-28T05:16:05.805Z,26.07
2022-09-28T05:17:07.641Z,24.44
2022-09-28T05:18:09.448Z,24.25
2022-09-28T05:19:11.290Z,25.58
2022-09-28T05:20:14.926Z,25.12
2022-09-28T05:21:16.728Z,25.71
2022-09-28T05:22:18.625Z,26.03
2022-09-28T05:23:20.430Z,26.27
2022-09-28T05:24:22.289Z,26.38
2022-09-28T05:25:24.098Z,25.30
2022-09-28T05:26:25.892Z,26.55
2022-09-28T05:27:27.703Z,25.77
2022-09-28T05:28:29.513Z,25.45
2022-09-28T05:29:32.443Z,25.87
2022-09-28T05:30:34.575Z,26.38
2022-09-28T05:31:36.432Z,25.93
2022-09-28T05:32:38.182Z,25.54
2022-09-28T05:33:39.978Z,27.49
2022-09-28T05:34:41.813Z,26.39
2022-09-28T05:35:43.605Z,27.17
2022-09-28T05:36:45.440Z,26.33
2022-09-28T05:37:47.255Z,26.59
2022-09-28T05:38:49.046Z,27.14
2022-09-28T05:39:50.874Z,27.65
2022-09-28T05:40:52.743Z,29.24
2022-09-28T05:41:54.582Z,28.25
2022-09-28T05:42:56.386Z,26.58
2022-09-28T05:43:58.187Z,26.81
2022-09-28T05:45:00.032Z,27.50
2022-09-28T05:46:01.907Z,26.87
2022-09-28T05:47:03.724Z,26.54
2022-09-28T05:48:05.526Z,26.56
2022-09-28T05:49:07.328Z,26.56
2022-09-28T05:50:09.376Z,26.44
2022-09-28T05:51:11.185Z,26.61
2022-09-28T05:52:13.139Z,25.87
2022-09-28T05:53:14.939Z,25.83
2022-09-28T05:54:16.957Z,26.53
2022-09-28T05:55:18.918Z,26.99
2022-09-28T05:56:20.809Z,26.33
2022-09-28T05:57:22.611Z,26.05
2022-09-28T05:58:24.312Z,25.34
2022-09-28T05:59:26.100Z,26.38
2022-09-28T06:00:27.943Z,25.85
2022-09-28T06:01:30.034Z,26.21
2022-09-28T06:02:31.902Z,26.03
2022-09-28T06:03:33.659Z,26.01
2022-09-28T06:04:35.459Z,25.96
2022-09-28T06:05:37.320Z,26.61
2022-09-28T06:06:39.141Z,25.09
2022-09-28T06:07:41.087Z,25.67
2022-09-28T06:08:42.899Z,25.62
2022-09-28T06:09:45.518Z,26.39
2022-09-28T06:10:47.352Z,26.93
2022-09-28T06:11:49.177Z,25.79
2022-09-28T06:12:50.987Z,25.67
2022-09-28T06:13:52.777Z,25.82
2022-09-28T06:14:54.685Z,26.76
2022-09-28T06:15:56.527Z,31.67
2022-09-28T06:16:58.479Z,27.18
2022-09-28T06:18:00.495Z,26.20
2022-09-28T06:19:02.295Z,25.62
2022-09-28T06:20:04.093Z,26.45
2022-09-28T06:21:06.033Z,26.57
2022-09-28T06:22:07.936Z,26.44
2022-09-28T06:23:09.818Z,26.66
2022-09-28T06:24:11.642Z,25.89
2022-09-28T06:25:13.442Z,27.45
2022-09-28T06:26:16.242Z,29.92
2022-09-28T06:27:18.034Z,27.09
2022-09-28T06:28:19.836Z,27.73
2022-09-28T06:29:21.679Z,27.27
2022-09-28T06:30:23.526Z,26.75
2022-09-28T06:31:25.321Z,27.23
2022-09-28T06:32:27.102Z,28.59
2022-09-28T06:33:28.934Z,26.72
2022-09-28T06:34:30.757Z,26.75
2022-09-28T06:35:32.539Z,26.20
2022-09-28T06:36:34.367Z,27.57
2022-09-28T06:37:36.178Z,26.79
2022-09-28T06:38:38.020Z,27.23
2022-09-28T06:39:39.837Z,26.99
2022-09-28T06:40:41.667Z,26.23
2022-09-28T06:41:43.585Z,26.65
2022-09-28T06:42:45.399Z,26.22
2022-09-28T06:43:47.289Z,27.01
2022-09-28T06:44:49.141Z,26.16
2022-09-28T06:45:50.972Z,25.58
2022-09-28T06:46:52.823Z,26.29
2022-09-28T06:47:54.733Z,26.87
2022-09-28T06:48:56.615Z,29.89
2022-09-28T06:49:58.434Z,32.64
2022-09-28T06:51:00.423Z,30.05
2022-09-28T06:52:02.253Z,26.60
2022-09-28T06:53:04.046Z,25.46
2022-09-28T06:54:05.869Z,25.45
2022-09-28T06:55:07.675Z,23.84
2022-09-28T06:56:09.613Z,24.16
2022-09-28T06:57:11.470Z,24.17
2022-09-28T06:58:13.308Z,23.87
2022-09-28T06:59:15.142Z,23.93
2022-09-28T07:00:17.580Z,22.39
2022-09-28T07:01:19.466Z,23.64
2022-09-28T07:02:21.431Z,23.35
2022-09-28T07:03:23.303Z,22.73
2022-09-28T07:04:25.134Z,23.96
2022-09-28T07:05:27.037Z,24.18
2022-09-28T07:06:28.858Z,23.88
2022-09-28T07:07:30.726Z,23.77
2022-09-28T07:08:32.579Z,23.41
2022-09-28T07:09:38.161Z,24.23
2022-09-28T07:10:38.100Z,23.45
2022-09-28T07:11:39.923Z,22.71
2022-09-28T07:12:41.792Z,23.47
2022-09-28T07:13:50.954Z,23.23
2022-09-28T07:14:48.430Z,24.94
2022-09-28T07:15:50.475Z,23.52
2022-09-28T07:17:11.917Z,23.91
2022-09-28T07:18:02.135Z,26.78
2022-09-28T07:18:59.661Z,34.33
2022-09-28T07:20:11.568Z,27.01
2022-09-28T07:21:05.154Z,24.71
2022-09-28T07:22:07.004Z,23.73
2022-09-28T07:23:18.354Z,23.75
2022-09-28T07:24:12.496Z,22.91
2022-09-28T07:25:14.527Z,23.40
2022-09-28T07:26:19.651Z,23.32
2022-09-28T07:27:20.216Z,23.53
2022-09-28T07:28:22.091Z,23.93
2022-09-28T07:29:23.902Z,23.95
2022-09-28T07:30:25.840Z,23.53
2022-09-28T07:31:27.758Z,23.55
2022-09-28T07:33:31.341Z,24.54
2022-09-28T07:34:33.194Z,22.97
2022-09-28T07:35:35.046Z,23.73
2022-09-28T07:36:36.899Z,23.90
2022-09-28T07:37:38.728Z,24.94
2022-09-28T07:38:40.722Z,24.53
2022-09-28T07:39:42.574Z,24.82
2022-09-28T07:40:48.301Z,32.87
2022-09-28T07:41:48.120Z,43.04
2022-09-28T07:42:49.938Z,47.45
2022-09-28T07:43:52.611Z,30.49
2022-09-28T07:44:54.466Z,28.03
2022-09-28T07:45:56.351Z,26.29
2022-09-28T07:46:58.232Z,24.85
2022-09-28T07:48:00.165Z,25.11
2022-09-28T07:49:02.122Z,25.29
2022-09-28T07:50:04.059Z,25.18
2022-09-28T07:51:05.898Z,24.63
2022-09-28T07:52:07.842Z,30.53
2022-09-28T07:53:09.667Z,43.33
2022-09-28T07:54:11.521Z,39.55
2022-09-28T07:55:13.329Z,39.41
2022-09-28T07:56:15.492Z,30.71
2022-09-28T07:57:17.350Z,26.71
2022-09-28T07:58:19.177Z,26.65
2022-09-28T07:59:21.053Z,25.81
2022-09-28T08:00:22.917Z,25.33
2022-09-28T08:01:24.758Z,24.97
2022-09-28T08:02:26.627Z,24.99
2022-09-28T08:03:28.506Z,25.34
2022-09-28T08:04:30.360Z,25.39
2022-09-28T08:05:32.183Z,25.71
2022-09-28T08:06:34.118Z,25.10
2022-09-28T08:07:35.970Z,25.57
2022-09-28T08:08:37.814Z,26.14
2022-09-28T08:09:39.679Z,25.34
2022-09-28T08:10:44.491Z,26.16
2022-09-28T08:11:45.175Z,25.26
2022-09-28T08:12:47.005Z,25.03
2022-09-28T08:13:48.853Z,25.36
2022-09-28T08:14:50.726Z,24.95
2022-09-28T08:15:52.591Z,25.06
2022-09-28T08:16:54.406Z,25.56
2022-09-28T08:17:59.144Z,25.89
2022-09-28T08:18:59.849Z,25.22
2022-09-28T08:20:02.422Z,25.25
2022-09-28T08:21:04.241Z,25.61
2022-09-28T08:22:06.062Z,25.67
2022-09-28T08:23:07.902Z,25.11
2022-09-28T08:24:09.748Z,24.23
2022-09-28T08:25:11.610Z,25.69
2022-09-28T08:26:15.732Z,24.95
2022-09-28T08:27:17.632Z,25.10
2022-09-28T08:28:19.456Z,24.51
2022-09-28T08:29:21.292Z,25.94
2022-09-28T08:30:23.304Z,24.72
2022-09-28T08:31:25.210Z,25.16
2022-09-28T08:32:27.063Z,25.01
2022-09-28T08:33:28.886Z,26.09
2022-09-28T08:34:30.740Z,25.46
2022-09-28T08:35:32.596Z,26.15
2022-09-28T08:36:34.458Z,23.93
2022-09-28T08:37:36.252Z,24.31
2022-09-28T08:38:38.118Z,24.56
2022-09-28T08:39:39.950Z,24.55
2022-09-28T08:40:41.870Z,24.56
2022-09-28T08:41:43.729Z,24.24
2022-09-28T08:42:45.645Z,24.79
2022-09-28T08:43:47.516Z,25.06
2022-09-28T08:44:49.341Z,24.99
2022-09-28T08:45:52.225Z,24.85
2022-09-28T08:46:54.171Z,25.31
2022-09-28T08:47:55.989Z,25.54
2022-09-28T08:49:20.478Z,25.38
2022-09-28T08:50:01.496Z,25.16
2022-09-28T08:51:03.358Z,26.21
2022-09-28T08:52:05.241Z,25.91
2022-09-28T08:53:09.859Z,27.36
2022-09-28T08:54:12.755Z,28.18
2022-09-28T08:55:14.587Z,27.07
2022-09-28T08:56:16.573Z,25.87
2022-09-28T08:57:18.389Z,25.48
2022-09-28T08:58:20.293Z,25.11
2022-09-28T08:59:22.123Z,23.41
2022-09-28T09:00:23.965Z,25.33
2022-09-28T09:01:25.962Z,24.26
2022-09-28T09:02:27.897Z,24.67
2022-09-28T09:03:29.670Z,23.98
2022-09-28T09:04:31.505Z,24.10
2022-09-28T09:05:33.359Z,23.12
2022-09-28T09:06:35.224Z,23.62
2022-09-28T09:07:37.056Z,23.28
2022-09-28T09:08:38.843Z,24.48
2022-09-28T09:09:42.235Z,22.54
2022-09-28T09:10:45.283Z,23.21
2022-09-28T09:11:47.125Z,23.42
2022-09-28T09:12:48.943Z,25.59
2022-09-28T09:13:50.880Z,24.74
2022-09-28T09:14:52.700Z,23.75
2022-09-28T09:15:54.556Z,24.71
2022-09-28T09:17:00.010Z,23.90
2022-09-28T09:17:59.960Z,22.80
2022-09-28T09:19:01.748Z,22.14
2022-09-28T09:20:03.579Z,22.92
2022-09-28T09:21:05.402Z,22.49
2022-09-28T09:22:07.227Z,23.10
2022-09-28T09:23:09.137Z,21.39
2022-09-28T09:24:11.179Z,22.12
2022-09-28T09:25:12.906Z,21.67
2022-09-28T09:26:17.367Z,22.63
2022-09-28T09:27:18.577Z,21.44
2022-09-28T09:28:20.388Z,22.12
2022-09-28T09:29:22.212Z,21.61
2022-09-28T09:30:24.215Z,22.52
2022-09-28T09:31:26.354Z,22.11
2022-09-28T09:32:28.190Z,21.44
2022-09-28T09:33:29.968Z,22.35
2022-09-28T09:34:31.769Z,21.97
2022-09-28T09:35:33.571Z,21.68
2022-09-28T09:36:35.375Z,22.37
2022-09-28T09:37:37.205Z,22.10
2022-09-28T09:38:39.014Z,21.93
2022-09-28T09:39:40.809Z,21.30
2022-09-28T09:40:42.663Z,22.73
2022-09-28T09:41:44.428Z,21.94
2022-09-28T09:42:46.284Z,20.92
2022-09-28T09:43:48.043Z,21.27
2022-09-28T09:44:49.917Z,20.77
2022-09-28T09:45:51.779Z,20.25
2022-09-28T09:46:53.549Z,21.90
2022-09-28T09:47:55.407Z,21.59
2022-09-28T09:48:57.200Z,20.43
2022-09-28T09:49:59.003Z,21.44
2022-09-28T09:51:00.813Z,21.26
2022-09-28T09:52:02.525Z,21.48
2022-09-28T09:53:04.367Z,20.87
2022-09-28T09:54:06.167Z,21.71
2022-09-28T09:55:07.957Z,20.93
2022-09-28T09:56:10.078Z,21.28
2022-09-28T09:57:11.876Z,21.19
2022-09-28T09:58:13.816Z,21.49
2022-09-28T09:59:15.697Z,20.62
2022-09-28T10:00:18.038Z,19.99
2022-09-28T10:01:20.134Z,20.15
2022-09-28T10:02:21.964Z,19.56
2022-09-28T10:03:23.887Z,20.25
2022-09-28T10:04:25.702Z,20.39
2022-09-28T10:05:27.494Z,20.49
2022-09-28T10:06:29.294Z,20.95
2022-09-28T10:07:31.091Z,21.30
2022-09-28T10:08:32.938Z,20.44
2022-09-28T10:09:34.766Z,20.95
2022-09-28T10:10:36.549Z,21.25
2022-09-28T10:11:38.355Z,21.63
2022-09-28T10:12:40.186Z,21.35
2022-09-28T10:13:42.029Z,20.65
2022-09-28T10:14:43.853Z,21.17
2022-09-28T10:15:45.688Z,20.64
2022-09-28T10:16:47.549Z,20.82
2022-09-28T10:17:49.284Z,20.54
2022-09-28T10:18:51.138Z,19.87
2022-09-28T10:19:52.992Z,20.61
2022-09-28T10:20:54.813Z,21.15
2022-09-28T10:21:56.607Z,20.40
2022-09-28T10:22:58.414Z,20.34
2022-09-28T10:24:00.297Z,20.93
2022-09-28T10:25:02.071Z,20.26
2022-09-28T10:26:03.784Z,20.37
2022-09-28T10:27:05.616Z,18.95
2022-09-28T10:28:07.406Z,19.77
2022-09-28T10:29:09.294Z,19.04
2022-09-28T10:30:11.580Z,18.89
2022-09-28T10:31:13.432Z,19.85
2022-09-28T10:32:15.235Z,19.24
2022-09-28T10:33:17.039Z,20.58
2022-09-28T10:34:19.110Z,21.50
2022-09-28T10:35:20.981Z,26.22
2022-09-28T10:36:22.900Z,24.92
2022-09-28T10:37:24.715Z,22.08
2022-09-28T10:38:26.517Z,20.82
2022-09-28T10:39:28.559Z,20.20
2022-09-28T10:40:30.502Z,23.02
2022-09-28T10:41:32.409Z,28.23
2022-09-28T10:42:34.202Z,36.81
2022-09-28T10:43:35.999Z,40.34
2022-09-28T10:44:37.842Z,32.30
2022-09-28T10:45:39.763Z,30.79
2022-09-28T10:46:41.533Z,25.84
2022-09-28T10:47:43.389Z,28.74
2022-09-28T10:48:45.189Z,27.61
2022-09-28T10:49:47.513Z,21.47
2022-09-28T10:50:49.446Z,23.39
2022-09-28T10:51:51.251Z,21.25
2022-09-28T10:52:53.064Z,18.44
2022-09-28T10:53:54.874Z,20.90
2022-09-28T10:54:56.712Z,19.45
2022-09-28T10:55:58.511Z,19.12
2022-09-28T10:57:00.424Z,17.76
2022-09-28T10:58:02.238Z,18.23
2022-09-28T10:59:04.020Z,18.84
2022-09-28T11:00:06.215Z,18.23
2022-09-28T11:01:08.342Z,18.50
2022-09-28T11:02:10.238Z,18.71
2022-09-28T11:03:12.003Z,18.41
2022-09-28T11:04:15.064Z,18.25
2022-09-28T11:05:16.970Z,18.86
2022-09-28T11:06:18.799Z,19.09
2022-09-28T11:07:20.604Z,19.59
2022-09-28T11:08:22.413Z,19.00
2022-09-28T11:09:28.397Z,18.34
2022-09-28T11:10:27.874Z,19.44
2022-09-28T11:11:29.669Z,19.57
2022-09-28T11:12:31.478Z,21.03
2022-09-28T11:13:33.291Z,18.69
2022-09-28T11:14:39.601Z,18.37
2022-09-28T11:15:38.753Z,18.44
2022-09-28T11:16:40.618Z,17.73
2022-09-28T11:17:42.468Z,17.35
2022-09-28T11:18:44.290Z,18.02
2022-09-28T11:19:46.099Z,17.22
2022-09-28T11:20:48.006Z,17.30
2022-09-28T11:21:49.815Z,17.49
2022-09-28T11:22:53.549Z,17.26
2022-09-28T11:23:55.290Z,17.60
2022-09-28T11:24:57.232Z,17.69
2022-09-28T11:25:59.104Z,16.82
2022-09-28T11:27:01.033Z,17.31
2022-09-28T11:28:02.865Z,17.65
2022-09-28T11:29:04.704Z,17.27
2022-09-28T11:30:06.621Z,17.71
2022-09-28T11:31:08.556Z,16.95
2022-09-28T11:32:14.891Z,17.81
2022-09-28T11:33:14.089Z,18.02
2022-09-28T11:34:15.970Z,17.47
2022-09-28T11:35:17.750Z,17.39
2022-09-28T11:36:19.731Z,16.37
2022-09-28T11:37:21.582Z,16.24
2022-09-28T11:38:23.407Z,16.39
2022-09-28T11:39:25.242Z,15.93
2022-09-28T11:40:27.116Z,16.64
2022-09-28T11:41:29.259Z,16.47
2022-09-28T11:42:31.084Z,15.85
2022-09-28T11:43:32.942Z,16.01
2022-09-28T11:44:34.773Z,15.97
2022-09-28T11:45:36.703Z,17.19
2022-09-28T11:46:40.065Z,19.59
2022-09-28T11:47:43.801Z,16.86
2022-09-28T11:48:45.963Z,17.02
2022-09-28T11:49:48.450Z,16.23
2022-09-28T11:50:50.419Z,15.05
2022-09-28T11:51:52.309Z,15.55
2022-09-28T11:52:54.491Z,16.32
2022-09-28T11:53:56.339Z,16.00
2022-09-28T11:54:58.446Z,15.70
2022-09-28T11:56:02.455Z,15.69
2022-09-28T11:57:04.321Z,15.80
2022-09-28T11:58:06.208Z,21.69
2022-09-28T11:59:08.378Z,22.13
2022-09-28T12:00:10.769Z,29.14
2022-09-28T12:01:18.084Z,20.13
2022-09-28T12:02:18.749Z,17.05
2022-09-28T12:03:20.868Z,16.20
2022-09-28T12:04:22.897Z,16.41
2022-09-28T12:05:24.760Z,15.57
2022-09-28T12:06:26.657Z,15.87
2022-09-28T12:07:28.656Z,15.85
2022-09-28T12:08:39.208Z,15.37
2022-09-28T12:09:44.326Z,15.22
2022-09-28T12:10:46.252Z,15.96
2022-09-28T12:11:48.118Z,15.51
2022-09-28T12:12:50.044Z,16.00
2022-09-28T12:13:51.912Z,16.06
2022-09-28T12:14:53.771Z,14.57
2022-09-28T12:17:10.647Z,15.38
2022-09-28T12:18:12.829Z,14.79
2022-09-28T12:19:15.800Z,16.12
2022-09-28T12:20:17.874Z,15.37
2022-09-28T12:21:19.742Z,15.17
2022-09-28T12:22:21.606Z,15.19
2022-09-28T12:23:25.627Z,14.92
2022-09-28T12:24:27.501Z,15.15
2022-09-28T12:25:29.383Z,14.56
2022-09-28T12:26:34.632Z,14.70
2022-09-28T12:27:34.952Z,15.07
2022-09-28T12:28:38.022Z,15.75
2022-09-28T12:29:39.947Z,19.32
2022-09-28T12:30:42.127Z,18.66
2022-09-28T12:31:43.972Z,18.45
2022-09-28T12:32:46.158Z,16.20
2022-09-28T12:33:48.086Z,15.28
2022-09-28T12:34:49.977Z,13.47
2022-09-28T12:35:51.954Z,13.91
2022-09-28T12:36:54.788Z,13.59
2022-09-28T12:37:59.846Z,13.58
2022-09-28T12:39:20.224Z,13.43
2022-09-28T12:40:06.265Z,14.38
2022-09-28T12:41:08.607Z,13.58
2022-09-28T12:42:10.896Z,13.00
2022-09-28T12:43:14.905Z,13.54
2022-09-28T12:44:18.661Z,13.18
2022-09-28T12:45:20.496Z,13.61
2022-09-28T12:46:22.371Z,12.91
2022-09-28T12:47:24.148Z,13.17
2022-09-28T12:48:25.991Z,13.35
2022-09-28T12:50:38.455Z,13.09
2022-09-28T12:51:35.228Z,13.06
2022-09-28T12:52:37.100Z,13.91
2022-09-28T12:53:38.892Z,12.82
2022-09-28T12:54:40.762Z,13.64
2022-09-28T12:55:42.502Z,13.96
2022-09-28T12:56:44.321Z,13.56
2022-09-28T12:57:46.197Z,14.51
2022-09-28T12:58:48.003Z,15.58
2022-09-28T12:59:49.879Z,15.77
2022-09-28T13:00:51.704Z,14.22
2022-09-28T13:01:53.574Z,13.26
2022-09-28T13:02:55.398Z,12.79
2022-09-28T13:03:57.300Z,13.24
2022-09-28T13:04:59.178Z,12.01
2022-09-28T13:06:01.032Z,12.19
2022-09-28T13:07:02.874Z,12.20
2022-09-28T13:08:04.776Z,12.67
2022-09-28T13:09:06.613Z,11.73
2022-09-28T13:10:08.584Z,12.35
2022-09-28T13:11:10.424Z,12.36
2022-09-28T13:12:12.299Z,11.71
2022-09-28T13:13:14.123Z,12.17
2022-09-28T13:14:15.949Z,12.27
2022-09-28T13:15:17.816Z,11.75
2022-09-28T13:16:19.996Z,12.07
2022-09-28T13:17:21.880Z,11.73
2022-09-28T13:18:23.718Z,11.79
2022-09-28T13:19:25.773Z,11.54
2022-09-28T13:20:27.576Z,10.79
2022-09-28T13:21:29.402Z,12.09